sensor_id;sensor_type;location;lat;lon;timestamp;P1;durP1;ratioP1;P2;durP2;ratioP2
15177;SDS011;7689;53.612;-2.416;2022-08-11T00:00:39;4.63;;;3.20;;
15177;SDS011;7689;53.612;-2.416;2022-08-11T00:03:09;3.60;;;3.35;;
15177;SDS011;7689;53.612;-2.416;2022-08-11T00:05:46;3.63;;;3.30;;
15177;SDS011;7689;53.612;-2.416;2022-08-11T00:08:25;5.63;;;3.60;;
15177;SDS011;7689;53.612;-2.416;2022-08-11T00:11:03;4.32;;;3.60;;
15177;SDS011;7689;53.612;-2.416;2022-08-11T00:13:42;3.42;;;3.20;;
15177;SDS011;7689;53.612;-2.416;2022-08-11T00:18:43;4.35;;;3.72;;
15177;SDS011;7689;53.612;-2.416;2022-08-11T00:21:10;4.10;;;3.80;;
15177;SDS011;7689;53.612;-2.416;2022-08-11T00:23:45;5.55;;;3.70;;
15177;SDS011;7689;53.612;-2.416;2022-08-11T00:26:24;4.93;;;3.88;;
15177;SDS011;7689;53.612;-2.416;2022-08-11T00:28:51;5.50;;;3.97;;
15177;SDS011;7689;53.612;-2.416;2022-08-11T00:31:23;4.47;;;3.97;;
15177;SDS011;7689;53.612;-2.416;2022-08-11T00:33:55;4.30;;;3.55;;
15177;SDS011;7689;53.612;-2.416;2022-08-11T00:36:28;4.53;;;3.92;;
15177;SDS011;7689;53.612;-2.416;2022-08-11T00:39:21;3.50;;;3.15;;
15177;SDS011;7689;53.612;-2.416;2022-08-11T00:41:58;6.07;;;3.50;;
15177;SDS011;7689;53.612;-2.416;2022-08-11T01:12:43;3.63;;;3.22;;
15177;SDS011;7689;53.612;-2.416;2022-08-11T01:40:50;4.00;;;3.70;;
15177;SDS011;7689;53.612;-2.416;2022-08-11T01:54:30;3.65;;;3.35;;
15177;SDS011;7689;53.612;-2.416;2022-08-11T01:57:00;5.85;;;3.70;;
15177;SDS011;7689;53.612;-2.416;2022-08-11T01:59:46;3.67;;;3.33;;
15177;SDS011;7689;53.612;-2.416;2022-08-11T02:02:31;3.67;;;3.45;;
15177;SDS011;7689;53.612;-2.416;2022-08-11T02:05:22;3.90;;;3.60;;
15177;SDS011;7689;53.612;-2.416;2022-08-11T02:07:55;4.18;;;3.88;;
15177;SDS011;7689;53.612;-2.416;2022-08-11T02:14:02;4.47;;;3.83;;
15177;SDS011;7689;53.612;-2.416;2022-08-11T02:17:20;3.75;;;3.40;;
15177;SDS011;7689;53.612;-2.416;2022-08-11T02:22:57;4.38;;;3.50;;
15177;SDS011;7689;53.612;-2.416;2022-08-11T02:25:49;3.50;;;3.30;;
15177;SDS011;7689;53.612;-2.416;2022-08-11T02:28:24;4.93;;;3.60;;
15177;SDS011;7689;53.612;-2.416;2022-08-11T02:37:02;3.50;;;3.30;;
15177;SDS011;7689;53.612;-2.416;2022-08-11T02:53:58;3.90;;;3.60;;
15177;SDS011;7689;53.612;-2.416;2022-08-11T02:59:32;4.35;;;3.50;;
15177;SDS011;7689;53.612;-2.416;2022-08-11T03:10:56;4.00;;;3.70;;
15177;SDS011;7689;53.612;-2.416;2022-08-11T03:14:08;5.40;;;3.72;;
15177;SDS011;7689;53.612;-2.416;2022-08-11T03:20:03;4.00;;;3.70;;
15177;SDS011;7689;53.612;-2.416;2022-08-11T03:22:59;4.00;;;3.55;;
15177;SDS011;7689;53.612;-2.416;2022-08-11T03:31:33;3.85;;;3.60;;
15177;SDS011;7689;53.612;-2.416;2022-08-11T03:34:05;4.45;;;4.05;;
15177;SDS011;7689;53.612;-2.416;2022-08-11T03:43:06;7.45;;;3.97;;
15177;SDS011;7689;53.612;-2.416;2022-08-11T03:45:54;4.25;;;3.90;;
15177;SDS011;7689;53.612;-2.416;2022-08-11T03:54:30;4.85;;;3.85;;
15177;SDS011;7689;53.612;-2.416;2022-08-11T04:20:08;5.10;;;4.18;;
15177;SDS011;7689;53.612;-2.416;2022-08-11T05:06:36;6.03;;;4.80;;
15177;SDS011;7689;53.612;-2.416;2022-08-11T05:09:36;5.05;;;4.70;;
15177;SDS011;7689;53.612;-2.416;2022-08-11T05:15:01;7.03;;;5.18;;
15177;SDS011;7689;53.612;-2.416;2022-08-11T05:17:58;4.72;;;4.32;;
15177;SDS011;7689;53.612;-2.416;2022-08-11T05:20:51;5.80;;;4.80;;
15177;SDS011;7689;53.612;-2.416;2022-08-11T05:23:46;4.88;;;4.47;;
15177;SDS011;7689;53.612;-2.416;2022-08-11T05:26:45;5.30;;;4.75;;
15177;SDS011;7689;53.612;-2.416;2022-08-11T05:29:39;4.82;;;4.38;;
15177;SDS011;7689;53.612;-2.416;2022-08-11T05:32:35;4.90;;;4.43;;
15177;SDS011;7689;53.612;-2.416;2022-08-11T05:35:23;4.57;;;4.18;;
15177;SDS011;7689;53.612;-2.416;2022-08-11T05:37:52;4.60;;;4.20;;
15177;SDS011;7689;53.612;-2.416;2022-08-11T05:40:44;4.85;;;4.38;;
15177;SDS011;7689;53.612;-2.416;2022-08-11T05:43:30;5.30;;;4.80;;
15177;SDS011;7689;53.612;-2.416;2022-08-11T05:46:16;4.10;;;3.80;;
15177;SDS011;7689;53.612;-2.416;2022-08-11T05:49:02;4.85;;;4.45;;
15177;SDS011;7689;53.612;-2.416;2022-08-11T05:51:52;4.38;;;4.03;;
15177;SDS011;7689;53.612;-2.416;2022-08-11T05:54:39;4.93;;;4.40;;
15177;SDS011;7689;53.612;-2.416;2022-08-11T05:57:31;4.57;;;4.20;;
15177;SDS011;7689;53.612;-2.416;2022-08-11T06:00:03;8.23;;;4.40;;
15177;SDS011;7689;53.612;-2.416;2022-08-11T06:02:39;4.65;;;4.25;;
15177;SDS011;7689;53.612;-2.416;2022-08-11T06:05:15;5.38;;;4.75;;
15177;SDS011;7689;53.612;-2.416;2022-08-11T06:07:42;4.45;;;4.10;;
15177;SDS011;7689;53.612;-2.416;2022-08-11T06:10:09;5.95;;;4.15;;
15177;SDS011;7689;53.612;-2.416;2022-08-11T06:12:36;5.07;;;4.55;;
15177;SDS011;7689;53.612;-2.416;2022-08-11T06:15:05;5.38;;;4.40;;
15177;SDS011;7689;53.612;-2.416;2022-08-11T06:17:35;4.32;;;3.97;;
15177;SDS011;7689;53.612;-2.416;2022-08-11T06:20:09;4.65;;;4.07;;
15177;SDS011;7689;53.612;-2.416;2022-08-11T06:22:38;7.22;;;4.18;;
15177;SDS011;7689;53.612;-2.416;2022-08-11T06:25:08;5.88;;;4.35;;
15177;SDS011;7689;53.612;-2.416;2022-08-11T06:27:36;5.43;;;4.03;;
15177;SDS011;7689;53.612;-2.416;2022-08-11T06:30:04;4.97;;;4.43;;
15177;SDS011;7689;53.612;-2.416;2022-08-11T06:32:37;4.35;;;4.05;;
15177;SDS011;7689;53.612;-2.416;2022-08-11T06:37:45;4.55;;;4.15;;
15177;SDS011;7689;53.612;-2.416;2022-08-11T06:42:59;5.13;;;4.00;;
15177;SDS011;7689;53.612;-2.416;2022-08-11T06:48:16;6.78;;;4.32;;
15177;SDS011;7689;53.612;-2.416;2022-08-11T06:50:48;4.28;;;3.92;;
15177;SDS011;7689;53.612;-2.416;2022-08-11T06:53:35;5.05;;;4.55;;
15177;SDS011;7689;53.612;-2.416;2022-08-11T06:56:06;5.93;;;4.18;;
15177;SDS011;7689;53.612;-2.416;2022-08-11T06:58:52;5.10;;;4.10;;
15177;SDS011;7689;53.612;-2.416;2022-08-11T07:04:28;6.65;;;4.20;;
15177;SDS011;7689;53.612;-2.416;2022-08-11T07:12:59;4.35;;;3.72;;
15177;SDS011;7689;53.612;-2.416;2022-08-11T07:15:44;4.93;;;4.20;;
15177;SDS011;7689;53.612;-2.416;2022-08-11T07:18:22;4.60;;;4.00;;
15177;SDS011;7689;53.612;-2.416;2022-08-11T07:24:03;6.40;;;3.72;;
15177;SDS011;7689;53.612;-2.416;2022-08-11T07:27:03;5.53;;;4.30;;
15177;SDS011;7689;53.612;-2.416;2022-08-11T07:29:50;3.72;;;3.42;;
15177;SDS011;7689;53.612;-2.416;2022-08-11T07:32:24;6.82;;;3.80;;
15177;SDS011;7689;53.612;-2.416;2022-08-11T07:35:11;6.43;;;4.10;;
15177;SDS011;7689;53.612;-2.416;2022-08-11T07:37:42;4.82;;;3.60;;
15177;SDS011;7689;53.612;-2.416;2022-08-11T07:40:13;5.57;;;3.75;;
15177;SDS011;7689;53.612;-2.416;2022-08-11T07:42:43;13.60;;;4.97;;
15177;SDS011;7689;53.612;-2.416;2022-08-11T07:45:10;7.05;;;3.83;;
15177;SDS011;7689;53.612;-2.416;2022-08-11T07:47:56;4.05;;;3.55;;
15177;SDS011;7689;53.612;-2.416;2022-08-11T07:50:41;4.22;;;3.33;;
15177;SDS011;7689;53.612;-2.416;2022-08-11T07:53:27;3.67;;;3.38;;
15177;SDS011;7689;53.612;-2.416;2022-08-11T07:55:55;3.63;;;3.30;;
15177;SDS011;7689;53.612;-2.416;2022-08-11T07:58:23;4.72;;;3.70;;
15177;SDS011;7689;53.612;-2.416;2022-08-11T08:01:08;3.72;;;3.20;;
15177;SDS011;7689;53.612;-2.416;2022-08-11T08:03:55;4.07;;;3.50;;
15177;SDS011;7689;53.612;-2.416;2022-08-11T08:06:43;4.53;;;3.78;;
15177;SDS011;7689;53.612;-2.416;2022-08-11T08:09:28;5.15;;;3.53;;
15177;SDS011;7689;53.612;-2.416;2022-08-11T08:12:16;8.02;;;3.40;;
15177;SDS011;7689;53.612;-2.416;2022-08-11T08:15:05;4.45;;;3.42;;
15177;SDS011;7689;53.612;-2.416;2022-08-11T08:17:51;5.05;;;3.83;;
15177;SDS011;7689;53.612;-2.416;2022-08-11T08:20:23;24.90;;;6.50;;
15177;SDS011;7689;53.612;-2.416;2022-08-11T08:22:58;9.43;;;4.30;;
15177;SDS011;7689;53.612;-2.416;2022-08-11T08:25:27;12.93;;;5.20;;
15177;SDS011;7689;53.612;-2.416;2022-08-11T08:27:54;5.78;;;3.80;;
15177;SDS011;7689;53.612;-2.416;2022-08-11T08:30:22;7.38;;;3.83;;
15177;SDS011;7689;53.612;-2.416;2022-08-11T08:33:10;3.67;;;3.38;;
15177;SDS011;7689;53.612;-2.416;2022-08-11T08:35:54;4.60;;;3.40;;
15177;SDS011;7689;53.612;-2.416;2022-08-11T08:41:05;7.43;;;5.05;;
15177;SDS011;7689;53.612;-2.416;2022-08-11T08:43:32;4.75;;;3.50;;
15177;SDS011;7689;53.612;-2.416;2022-08-11T08:46:00;3.63;;;3.33;;
15177;SDS011;7689;53.612;-2.416;2022-08-11T08:48:28;3.28;;;3.08;;
15177;SDS011;7689;53.612;-2.416;2022-08-11T08:50:56;4.22;;;3.75;;
15177;SDS011;7689;53.612;-2.416;2022-08-11T08:53:47;6.45;;;3.63;;
15177;SDS011;7689;53.612;-2.416;2022-08-11T08:56:16;4.82;;;2.97;;
15177;SDS011;7689;53.612;-2.416;2022-08-11T08:58:47;3.63;;;3.30;;
15177;SDS011;7689;53.612;-2.416;2022-08-11T09:01:14;4.57;;;3.50;;
15177;SDS011;7689;53.612;-2.416;2022-08-11T09:03:44;5.15;;;3.58;;
15177;SDS011;7689;53.612;-2.416;2022-08-11T09:06:10;5.82;;;3.70;;
15177;SDS011;7689;53.612;-2.416;2022-08-11T09:08:39;4.35;;;3.47;;
15177;SDS011;7689;53.612;-2.416;2022-08-11T09:11:05;3.63;;;3.33;;
15177;SDS011;7689;53.612;-2.416;2022-08-11T09:13:49;10.10;;;3.40;;
15177;SDS011;7689;53.612;-2.416;2022-08-11T09:16:17;3.90;;;3.60;;
15177;SDS011;7689;53.612;-2.416;2022-08-11T09:18:43;5.68;;;3.70;;
15177;SDS011;7689;53.612;-2.416;2022-08-11T09:21:12;3.42;;;3.10;;
15177;SDS011;7689;53.612;-2.416;2022-08-11T09:23:40;4.00;;;3.50;;
15177;SDS011;7689;53.612;-2.416;2022-08-11T09:26:26;3.90;;;3.20;;
15177;SDS011;7689;53.612;-2.416;2022-08-11T09:29:11;3.97;;;3.60;;
15177;SDS011;7689;53.612;-2.416;2022-08-11T09:31:37;6.07;;;3.53;;
15177;SDS011;7689;53.612;-2.416;2022-08-11T09:34:03;4.72;;;3.67;;
15177;SDS011;7689;53.612;-2.416;2022-08-11T09:36:29;3.58;;;3.30;;
15177;SDS011;7689;53.612;-2.416;2022-08-11T09:39:15;6.07;;;3.45;;
15177;SDS011;7689;53.612;-2.416;2022-08-11T09:42:01;4.25;;;3.40;;
15177;SDS011;7689;53.612;-2.416;2022-08-11T09:44:29;3.80;;;3.25;;
15177;SDS011;7689;53.612;-2.416;2022-08-11T09:49:47;4.57;;;3.63;;
15177;SDS011;7689;53.612;-2.416;2022-08-11T09:52:16;4.53;;;3.50;;
15177;SDS011;7689;53.612;-2.416;2022-08-11T09:54:43;5.20;;;2.92;;
15177;SDS011;7689;53.612;-2.416;2022-08-11T09:57:11;3.95;;;3.40;;
15177;SDS011;7689;53.612;-2.416;2022-08-11T09:59:55;4.03;;;3.10;;
15177;SDS011;7689;53.612;-2.416;2022-08-11T10:02:22;3.65;;;3.30;;
15177;SDS011;7689;53.612;-2.416;2022-08-11T10:04:51;4.75;;;3.22;;
15177;SDS011;7689;53.612;-2.416;2022-08-11T10:07:44;5.40;;;3.15;;
15177;SDS011;7689;53.612;-2.416;2022-08-11T10:10:15;4.68;;;3.15;;
15177;SDS011;7689;53.612;-2.416;2022-08-11T10:12:45;5.85;;;3.35;;
15177;SDS011;7689;53.612;-2.416;2022-08-11T10:15:23;3.38;;;3.08;;
15177;SDS011;7689;53.612;-2.416;2022-08-11T10:18:01;4.40;;;3.00;;
15177;SDS011;7689;53.612;-2.416;2022-08-11T10:20:56;5.10;;;3.25;;
15177;SDS011;7689;53.612;-2.416;2022-08-11T10:23:25;4.13;;;3.03;;
15177;SDS011;7689;53.612;-2.416;2022-08-11T10:26:13;4.30;;;3.10;;
15177;SDS011;7689;53.612;-2.416;2022-08-11T10:28:58;3.50;;;3.20;;
15177;SDS011;7689;53.612;-2.416;2022-08-11T10:31:26;3.90;;;3.08;;
15177;SDS011;7689;53.612;-2.416;2022-08-11T10:34:11;3.47;;;3.17;;
15177;SDS011;7689;53.612;-2.416;2022-08-11T10:36:38;5.32;;;3.42;;
15177;SDS011;7689;53.612;-2.416;2022-08-11T10:39:16;6.95;;;3.50;;
15177;SDS011;7689;53.612;-2.416;2022-08-11T10:41:44;6.45;;;3.90;;
15177;SDS011;7689;53.612;-2.416;2022-08-11T10:44:36;12.98;;;4.53;;
15177;SDS011;7689;53.612;-2.416;2022-08-11T10:47:09;7.68;;;3.63;;
15177;SDS011;7689;53.612;-2.416;2022-08-11T10:49:55;5.63;;;3.90;;
15177;SDS011;7689;53.612;-2.416;2022-08-11T10:52:40;5.10;;;4.13;;
15177;SDS011;7689;53.612;-2.416;2022-08-11T10:55:25;5.63;;;4.88;;
15177;SDS011;7689;53.612;-2.416;2022-08-11T10:58:10;8.10;;;4.60;;
15177;SDS011;7689;53.612;-2.416;2022-08-11T11:00:55;5.68;;;4.22;;
15177;SDS011;7689;53.612;-2.416;2022-08-11T11:03:24;10.77;;;4.60;;
15177;SDS011;7689;53.612;-2.416;2022-08-11T11:05:52;5.60;;;4.00;;
15177;SDS011;7689;53.612;-2.416;2022-08-11T11:08:22;5.78;;;4.07;;
15177;SDS011;7689;53.612;-2.416;2022-08-11T11:11:12;4.43;;;4.03;;
15177;SDS011;7689;53.612;-2.416;2022-08-11T11:13:42;4.40;;;4.00;;
15177;SDS011;7689;53.612;-2.416;2022-08-11T11:16:36;5.35;;;4.07;;
15177;SDS011;7689;53.612;-2.416;2022-08-11T11:19:23;4.65;;;3.90;;
15177;SDS011;7689;53.612;-2.416;2022-08-11T11:21:52;4.93;;;3.55;;
15177;SDS011;7689;53.612;-2.416;2022-08-11T11:24:29;6.78;;;3.75;;
15177;SDS011;7689;53.612;-2.416;2022-08-11T11:27:13;4.60;;;3.25;;
15177;SDS011;7689;53.612;-2.416;2022-08-11T11:37:34;3.50;;;3.00;;
15177;SDS011;7689;53.612;-2.416;2022-08-11T11:40:05;3.58;;;3.08;;
15177;SDS011;7689;53.612;-2.416;2022-08-11T11:42:38;3.25;;;2.90;;
15177;SDS011;7689;53.612;-2.416;2022-08-11T11:45:05;3.60;;;3.30;;
15177;SDS011;7689;53.612;-2.416;2022-08-11T11:47:33;8.82;;;3.47;;
15177;SDS011;7689;53.612;-2.416;2022-08-11T11:50:00;6.35;;;3.53;;
15177;SDS011;7689;53.612;-2.416;2022-08-11T11:52:27;5.40;;;3.28;;
15177;SDS011;7689;53.612;-2.416;2022-08-11T11:54:54;4.35;;;3.30;;
15177;SDS011;7689;53.612;-2.416;2022-08-11T11:57:21;5.43;;;3.33;;
15177;SDS011;7689;53.612;-2.416;2022-08-11T12:00:10;3.70;;;3.28;;
15177;SDS011;7689;53.612;-2.416;2022-08-11T12:02:59;4.45;;;3.13;;
15177;SDS011;7689;53.612;-2.416;2022-08-11T12:05:27;6.18;;;3.47;;
15177;SDS011;7689;53.612;-2.416;2022-08-11T12:07:57;3.38;;;3.10;;
15177;SDS011;7689;53.612;-2.416;2022-08-11T12:10:36;3.42;;;3.13;;
15177;SDS011;7689;53.612;-2.416;2022-08-11T12:13:36;4.63;;;3.25;;
15177;SDS011;7689;53.612;-2.416;2022-08-11T12:16:07;4.97;;;3.50;;
15177;SDS011;7689;53.612;-2.416;2022-08-11T12:18:35;4.72;;;3.00;;
15177;SDS011;7689;53.612;-2.416;2022-08-11T12:21:02;3.88;;;3.33;;
15177;SDS011;7689;53.612;-2.416;2022-08-11T12:23:30;6.40;;;3.17;;
15177;SDS011;7689;53.612;-2.416;2022-08-11T12:26:16;4.85;;;3.70;;
15177;SDS011;7689;53.612;-2.416;2022-08-11T12:29:02;3.83;;;3.47;;
15177;SDS011;7689;53.612;-2.416;2022-08-11T12:31:29;4.53;;;3.63;;
15177;SDS011;7689;53.612;-2.416;2022-08-11T12:34:15;4.50;;;3.63;;
15177;SDS011;7689;53.612;-2.416;2022-08-11T12:36:57;3.97;;;3.38;;
15177;SDS011;7689;53.612;-2.416;2022-08-11T12:39:30;3.70;;;3.40;;
15177;SDS011;7689;53.612;-2.416;2022-08-11T12:42:19;7.45;;;3.65;;
15177;SDS011;7689;53.612;-2.416;2022-08-11T12:45:07;5.18;;;3.55;;
15177;SDS011;7689;53.612;-2.416;2022-08-11T12:47:51;4.90;;;3.90;;
15177;SDS011;7689;53.612;-2.416;2022-08-11T12:50:39;10.88;;;3.90;;
15177;SDS011;7689;53.612;-2.416;2022-08-11T12:53:25;3.53;;;3.30;;
15177;SDS011;7689;53.612;-2.416;2022-08-11T12:55:58;4.43;;;3.65;;
15177;SDS011;7689;53.612;-2.416;2022-08-11T12:58:47;4.07;;;3.78;;
15177;SDS011;7689;53.612;-2.416;2022-08-11T13:01:15;5.35;;;3.40;;
15177;SDS011;7689;53.612;-2.416;2022-08-11T13:03:59;5.03;;;3.60;;
15177;SDS011;7689;53.612;-2.416;2022-08-11T13:06:44;6.38;;;3.80;;
15177;SDS011;7689;53.612;-2.416;2022-08-11T13:09:11;3.88;;;3.47;;
15177;SDS011;7689;53.612;-2.416;2022-08-11T13:11:37;5.70;;;3.67;;
15177;SDS011;7689;53.612;-2.416;2022-08-11T13:14:24;3.58;;;3.38;;
15177;SDS011;7689;53.612;-2.416;2022-08-11T13:16:51;7.30;;;3.70;;
15177;SDS011;7689;53.612;-2.416;2022-08-11T13:19:36;4.32;;;3.60;;
15177;SDS011;7689;53.612;-2.416;2022-08-11T13:22:02;4.47;;;3.95;;
15177;SDS011;7689;53.612;-2.416;2022-08-11T13:24:29;4.35;;;3.85;;
15177;SDS011;7689;53.612;-2.416;2022-08-11T13:26:58;3.70;;;3.40;;
15177;SDS011;7689;53.612;-2.416;2022-08-11T13:29:24;4.57;;;3.78;;
15177;SDS011;7689;53.612;-2.416;2022-08-11T13:31:52;4.28;;;3.10;;
15177;SDS011;7689;53.612;-2.416;2022-08-11T13:34:20;4.53;;;4.05;;
15177;SDS011;7689;53.612;-2.416;2022-08-11T13:36:49;7.03;;;3.72;;
15177;SDS011;7689;53.612;-2.416;2022-08-11T13:39:16;4.18;;;3.50;;
15177;SDS011;7689;53.612;-2.416;2022-08-11T13:41:42;4.18;;;3.30;;
15177;SDS011;7689;53.612;-2.416;2022-08-11T13:44:09;7.72;;;4.10;;
15177;SDS011;7689;53.612;-2.416;2022-08-11T13:46:38;5.68;;;3.50;;
15177;SDS011;7689;53.612;-2.416;2022-08-11T13:49:05;3.70;;;3.40;;
15177;SDS011;7689;53.612;-2.416;2022-08-11T13:51:36;6.65;;;3.90;;
15177;SDS011;7689;53.612;-2.416;2022-08-11T13:54:04;3.53;;;3.33;;
15177;SDS011;7689;53.612;-2.416;2022-08-11T13:56:38;3.92;;;3.63;;
15177;SDS011;7689;53.612;-2.416;2022-08-11T13:59:07;4.72;;;3.65;;
15177;SDS011;7689;53.612;-2.416;2022-08-11T14:01:38;5.03;;;4.00;;
15177;SDS011;7689;53.612;-2.416;2022-08-11T14:04:07;5.30;;;3.50;;
15177;SDS011;7689;53.612;-2.416;2022-08-11T14:06:36;3.90;;;3.40;;
15177;SDS011;7689;53.612;-2.416;2022-08-11T14:09:06;6.85;;;3.65;;
15177;SDS011;7689;53.612;-2.416;2022-08-11T14:11:33;3.92;;;3.63;;
15177;SDS011;7689;53.612;-2.416;2022-08-11T14:14:21;4.20;;;3.90;;
15177;SDS011;7689;53.612;-2.416;2022-08-11T14:16:51;4.07;;;3.67;;
15177;SDS011;7689;53.612;-2.416;2022-08-11T14:19:21;4.47;;;3.75;;
15177;SDS011;7689;53.612;-2.416;2022-08-11T14:21:49;6.88;;;3.88;;
15177;SDS011;7689;53.612;-2.416;2022-08-11T14:24:37;4.28;;;3.70;;
15177;SDS011;7689;53.612;-2.416;2022-08-11T14:27:05;4.25;;;3.83;;
15177;SDS011;7689;53.612;-2.416;2022-08-11T14:29:34;4.00;;;3.70;;
15177;SDS011;7689;53.612;-2.416;2022-08-11T14:32:05;5.93;;;3.53;;
15177;SDS011;7689;53.612;-2.416;2022-08-11T14:34:33;4.22;;;3.80;;
15177;SDS011;7689;53.612;-2.416;2022-08-11T14:37:04;4.45;;;3.88;;
15177;SDS011;7689;53.612;-2.416;2022-08-11T14:39:37;3.60;;;3.33;;
15177;SDS011;7689;53.612;-2.416;2022-08-11T14:42:24;4.22;;;3.30;;
15177;SDS011;7689;53.612;-2.416;2022-08-11T14:45:10;4.20;;;3.80;;
15177;SDS011;7689;53.612;-2.416;2022-08-11T14:48:00;4.47;;;3.97;;
15177;SDS011;7689;53.612;-2.416;2022-08-11T14:50:29;3.45;;;3.25;;
15177;SDS011;7689;53.612;-2.416;2022-08-11T14:53:01;6.03;;;3.38;;
15177;SDS011;7689;53.612;-2.416;2022-08-11T14:55:29;3.30;;;3.05;;
15177;SDS011;7689;53.612;-2.416;2022-08-11T14:58:20;4.85;;;3.50;;
15177;SDS011;7689;53.612;-2.416;2022-08-11T15:00:52;3.75;;;3.50;;
15177;SDS011;7689;53.612;-2.416;2022-08-11T15:03:20;3.20;;;3.00;;
15177;SDS011;7689;53.612;-2.416;2022-08-11T15:05:51;3.83;;;3.53;;
15177;SDS011;7689;53.612;-2.416;2022-08-11T15:08:21;3.30;;;3.03;;
15177;SDS011;7689;53.612;-2.416;2022-08-11T15:11:07;4.18;;;3.55;;
15177;SDS011;7689;53.612;-2.416;2022-08-11T15:13:54;4.25;;;3.88;;
15177;SDS011;7689;53.612;-2.416;2022-08-11T15:16:23;5.43;;;3.40;;
15177;SDS011;7689;53.612;-2.416;2022-08-11T15:19:08;4.22;;;3.22;;
15177;SDS011;7689;53.612;-2.416;2022-08-11T15:21:35;5.20;;;3.50;;
15177;SDS011;7689;53.612;-2.416;2022-08-11T15:24:19;5.68;;;3.50;;
15177;SDS011;7689;53.612;-2.416;2022-08-11T15:26:45;4.55;;;3.50;;
15177;SDS011;7689;53.612;-2.416;2022-08-11T15:29:32;3.63;;;3.30;;
15177;SDS011;7689;53.612;-2.416;2022-08-11T15:32:18;3.95;;;3.60;;
15177;SDS011;7689;53.612;-2.416;2022-08-11T15:34:49;4.45;;;3.40;;
15177;SDS011;7689;53.612;-2.416;2022-08-11T15:37:37;3.83;;;3.53;;
15177;SDS011;7689;53.612;-2.416;2022-08-11T15:46:22;3.45;;;3.15;;
15177;SDS011;7689;53.612;-2.416;2022-08-11T15:49:18;4.95;;;3.30;;
15177;SDS011;7689;53.612;-2.416;2022-08-11T15:51:59;2.97;;;2.67;;
15177;SDS011;7689;53.612;-2.416;2022-08-11T15:54:28;3.75;;;3.08;;
15177;SDS011;7689;53.612;-2.416;2022-08-11T15:56:55;3.58;;;3.28;;
15177;SDS011;7689;53.612;-2.416;2022-08-11T15:59:25;3.70;;;3.35;;
15177;SDS011;7689;53.612;-2.416;2022-08-11T16:02:14;3.80;;;3.47;;
15177;SDS011;7689;53.612;-2.416;2022-08-11T16:05:05;5.15;;;4.25;;
15177;SDS011;7689;53.612;-2.416;2022-08-11T16:07:34;4.47;;;3.50;;
15177;SDS011;7689;53.612;-2.416;2022-08-11T16:10:03;3.78;;;3.47;;
15177;SDS011;7689;53.612;-2.416;2022-08-11T16:12:36;4.95;;;3.47;;
15177;SDS011;7689;53.612;-2.416;2022-08-11T16:15:41;4.20;;;3.80;;
15177;SDS011;7689;53.612;-2.416;2022-08-11T16:18:43;5.75;;;3.72;;
15177;SDS011;7689;53.612;-2.416;2022-08-11T16:21:17;4.50;;;3.47;;
15177;SDS011;7689;53.612;-2.416;2022-08-11T16:24:08;4.13;;;3.72;;
15177;SDS011;7689;53.612;-2.416;2022-08-11T16:26:35;3.42;;;3.13;;
15177;SDS011;7689;53.612;-2.416;2022-08-11T16:29:05;3.97;;;3.60;;
15177;SDS011;7689;53.612;-2.416;2022-08-11T16:31:31;7.38;;;4.07;;
15177;SDS011;7689;53.612;-2.416;2022-08-11T16:34:00;4.07;;;3.65;;
15177;SDS011;7689;53.612;-2.416;2022-08-11T16:36:28;6.72;;;4.38;;
15177;SDS011;7689;53.612;-2.416;2022-08-11T16:39:13;4.07;;;3.78;;
15177;SDS011;7689;53.612;-2.416;2022-08-11T16:41:42;6.88;;;3.72;;
15177;SDS011;7689;53.612;-2.416;2022-08-11T16:44:28;6.40;;;4.43;;
15177;SDS011;7689;53.612;-2.416;2022-08-11T16:47:17;10.45;;;4.30;;
15177;SDS011;7689;53.612;-2.416;2022-08-11T16:49:47;5.53;;;4.53;;
15177;SDS011;7689;53.612;-2.416;2022-08-11T16:52:15;5.95;;;4.35;;
15177;SDS011;7689;53.612;-2.416;2022-08-11T16:54:42;4.90;;;4.25;;
15177;SDS011;7689;53.612;-2.416;2022-08-11T16:57:20;5.00;;;4.53;;
15177;SDS011;7689;53.612;-2.416;2022-08-11T17:00:06;4.25;;;3.95;;
15177;SDS011;7689;53.612;-2.416;2022-08-11T17:02:39;5.10;;;4.60;;
15177;SDS011;7689;53.612;-2.416;2022-08-11T17:05:27;6.70;;;4.45;;
15177;SDS011;7689;53.612;-2.416;2022-08-11T17:08:19;5.55;;;4.18;;
15177;SDS011;7689;53.612;-2.416;2022-08-11T17:11:14;4.82;;;4.00;;
15177;SDS011;7689;53.612;-2.416;2022-08-11T17:14:09;7.18;;;4.28;;
15177;SDS011;7689;53.612;-2.416;2022-08-11T17:16:37;6.50;;;4.30;;
15177;SDS011;7689;53.612;-2.416;2022-08-11T17:19:09;6.30;;;4.32;;
15177;SDS011;7689;53.612;-2.416;2022-08-11T17:21:39;6.20;;;4.68;;
15177;SDS011;7689;53.612;-2.416;2022-08-11T17:24:42;5.68;;;4.53;;
15177;SDS011;7689;53.612;-2.416;2022-08-11T17:27:11;6.88;;;6.22;;
15177;SDS011;7689;53.612;-2.416;2022-08-11T17:29:47;15.60;;;5.63;;
15177;SDS011;7689;53.612;-2.416;2022-08-11T17:32:17;5.95;;;3.80;;
15177;SDS011;7689;53.612;-2.416;2022-08-11T17:35:06;5.75;;;4.00;;
15177;SDS011;7689;53.612;-2.416;2022-08-11T17:37:52;7.40;;;3.92;;
15177;SDS011;7689;53.612;-2.416;2022-08-11T17:40:22;8.13;;;4.57;;
15177;SDS011;7689;53.612;-2.416;2022-08-11T17:42:50;5.53;;;3.83;;
15177;SDS011;7689;53.612;-2.416;2022-08-11T17:45:39;4.35;;;4.05;;
15177;SDS011;7689;53.612;-2.416;2022-08-11T17:48:26;5.07;;;4.10;;
15177;SDS011;7689;53.612;-2.416;2022-08-11T17:51:10;5.15;;;4.15;;
15177;SDS011;7689;53.612;-2.416;2022-08-11T17:53:58;9.18;;;4.90;;
15177;SDS011;7689;53.612;-2.416;2022-08-11T17:56:43;7.03;;;4.25;;
15177;SDS011;7689;53.612;-2.416;2022-08-11T17:59:28;4.60;;;4.10;;
15177;SDS011;7689;53.612;-2.416;2022-08-11T18:02:14;5.72;;;4.00;;
15177;SDS011;7689;53.612;-2.416;2022-08-11T18:05:22;4.10;;;3.75;;
15177;SDS011;7689;53.612;-2.416;2022-08-11T18:07:52;6.90;;;4.20;;
15177;SDS011;7689;53.612;-2.416;2022-08-11T18:10:40;6.45;;;4.15;;
15177;SDS011;7689;53.612;-2.416;2022-08-11T18:13:26;3.83;;;3.63;;
15177;SDS011;7689;53.612;-2.416;2022-08-11T18:16:13;7.47;;;4.35;;
15177;SDS011;7689;53.612;-2.416;2022-08-11T18:18:58;4.45;;;4.05;;
15177;SDS011;7689;53.612;-2.416;2022-08-11T18:21:44;3.75;;;3.55;;
15177;SDS011;7689;53.612;-2.416;2022-08-11T18:24:36;3.75;;;3.45;;
15177;SDS011;7689;53.612;-2.416;2022-08-11T18:27:22;6.75;;;3.80;;
15177;SDS011;7689;53.612;-2.416;2022-08-11T18:30:10;4.38;;;3.85;;
15177;SDS011;7689;53.612;-2.416;2022-08-11T18:32:55;4.32;;;4.00;;
15177;SDS011;7689;53.612;-2.416;2022-08-11T18:35:43;5.95;;;3.85;;
15177;SDS011;7689;53.612;-2.416;2022-08-11T18:38:32;6.55;;;3.90;;
15177;SDS011;7689;53.612;-2.416;2022-08-11T18:41:18;5.47;;;3.80;;
15177;SDS011;7689;53.612;-2.416;2022-08-11T18:44:03;3.95;;;3.47;;
15177;SDS011;7689;53.612;-2.416;2022-08-11T18:46:50;3.55;;;3.25;;
15177;SDS011;7689;53.612;-2.416;2022-08-11T18:49:37;3.97;;;3.60;;
15177;SDS011;7689;53.612;-2.416;2022-08-11T18:52:24;5.47;;;3.60;;
15177;SDS011;7689;53.612;-2.416;2022-08-11T18:55:16;4.65;;;3.53;;
15177;SDS011;7689;53.612;-2.416;2022-08-11T18:58:04;5.07;;;3.63;;
15177;SDS011;7689;53.612;-2.416;2022-08-11T19:00:54;5.03;;;3.55;;
15177;SDS011;7689;53.612;-2.416;2022-08-11T19:03:43;3.67;;;3.38;;
15177;SDS011;7689;53.612;-2.416;2022-08-11T19:06:30;3.88;;;3.50;;
15177;SDS011;7689;53.612;-2.416;2022-08-11T19:09:16;4.20;;;3.47;;
15177;SDS011;7689;53.612;-2.416;2022-08-11T19:12:02;3.92;;;3.50;;
15177;SDS011;7689;53.612;-2.416;2022-08-11T19:14:48;3.67;;;3.45;;
15177;SDS011;7689;53.612;-2.416;2022-08-11T19:17:34;4.65;;;3.33;;
15177;SDS011;7689;53.612;-2.416;2022-08-11T19:20:22;3.70;;;3.22;;
15177;SDS011;7689;53.612;-2.416;2022-08-11T19:23:09;3.60;;;3.38;;
15177;SDS011;7689;53.612;-2.416;2022-08-11T19:25:56;3.35;;;3.05;;
15177;SDS011;7689;53.612;-2.416;2022-08-11T19:28:41;6.82;;;4.13;;
15177;SDS011;7689;53.612;-2.416;2022-08-11T19:31:31;4.97;;;4.03;;
15177;SDS011;7689;53.612;-2.416;2022-08-11T19:34:17;3.88;;;3.67;;
15177;SDS011;7689;53.612;-2.416;2022-08-11T19:37:04;4.88;;;3.80;;
15177;SDS011;7689;53.612;-2.416;2022-08-11T19:39:49;5.90;;;3.80;;
15177;SDS011;7689;53.612;-2.416;2022-08-11T19:42:40;4.40;;;3.53;;
15177;SDS011;7689;53.612;-2.416;2022-08-11T19:45:25;3.80;;;3.50;;
15177;SDS011;7689;53.612;-2.416;2022-08-11T19:48:10;4.10;;;3.72;;
15177;SDS011;7689;53.612;-2.416;2022-08-11T19:50:54;8.00;;;3.60;;